createdAt,value
2018-03-19T00:00:43.762Z,-4.10
2018-03-19T00:03:11.336Z,-4.10
2018-03-19T00:05:38.857Z,-4.10
2018-03-19T00:08:07.178Z,-4.10
2018-03-19T00:10:34.709Z,-4.10
2018-03-19T00:13:02.250Z,-4.10
2018-03-19T00:15:30.541Z,-4.10
2018-03-19T00:17:58.883Z,-4.20
2018-03-19T00:20:26.412Z,-4.20
2018-03-19T00:22:53.961Z,-4.20
2018-03-19T00:25:21.534Z,-4.20
2018-03-19T00:27:49.104Z,-4.20
2018-03-19T00:30:16.599Z,-4.20
2018-03-19T00:32:44.908Z,-4.20
2018-03-19T00:35:12.446Z,-4.20
2018-03-19T00:37:39.992Z,-4.20
2018-03-19T00:40:08.287Z,-4.20
2018-03-19T00:42:35.844Z,-4.20
2018-03-19T00:45:03.369Z,-4.20
2018-03-19T00:47:31.700Z,-4.20
2018-03-19T00:49:59.223Z,-4.20
2018-03-19T00:52:26.766Z,-4.30
2018-03-19T00:54:54.302Z,-4.20
2018-03-19T00:57:21.849Z,-4.30
2018-03-19T00:59:49.384Z,-4.20
2018-03-19T01:02:16.930Z,-4.20
2018-03-19T01:04:44.451Z,-4.20
2018-03-19T01:07:11.998Z,-4.20
2018-03-19T01:09:39.529Z,-4.20
2018-03-19T01:12:07.079Z,-4.20
2018-03-19T01:14:34.609Z,-4.20
2018-03-19T01:17:02.145Z,-4.20
2018-03-19T01:19:30.432Z,-4.30
2018-03-19T01:21:58.745Z,-4.30
2018-03-19T01:24:26.265Z,-4.30
2018-03-19T01:26:54.583Z,-4.30
2018-03-19T01:29:22.116Z,-4.30
2018-03-19T01:31:49.669Z,-4.30
2018-03-19T01:34:17.201Z,-4.30
2018-03-19T01:36:44.746Z,-4.30
2018-03-19T01:39:12.274Z,-4.30
2018-03-19T01:41:39.817Z,-4.30
2018-03-19T01:44:07.345Z,-4.30
2018-03-19T01:46:35.658Z,-4.30
2018-03-19T01:49:03.184Z,-4.30
2018-03-19T01:51:31.502Z,-4.30
2018-03-19T01:53:59.026Z,-4.40
2018-03-19T01:56:26.582Z,-4.40
2018-03-19T01:58:54.869Z,-4.30
2018-03-19T02:01:22.416Z,-4.40
2018-03-19T02:03:50.715Z,-4.40
2018-03-19T02:06:18.258Z,-4.40
2018-03-19T02:08:45.792Z,-4.40
2018-03-19T02:11:14.085Z,-4.50
2018-03-19T02:13:42.395Z,-4.40
2018-03-19T02:16:10.697Z,-4.50
2018-03-19T02:18:38.232Z,-4.50
2018-03-19T02:21:05.752Z,-4.50
2018-03-19T02:23:34.054Z,-4.50
2018-03-19T02:26:01.569Z,-4.60
2018-03-19T02:28:29.121Z,-4.50
2018-03-19T02:30:56.641Z,-4.50
2018-03-19T02:33:24.191Z,-4.50
2018-03-19T02:35:52.493Z,-4.50
2018-03-19T02:38:20.034Z,-4.50
2018-03-19T02:40:47.563Z,-4.50
2018-03-19T02:43:15.122Z,-4.50
2018-03-19T02:45:42.646Z,-4.50
2018-03-19T02:48:10.200Z,-4.50
2018-03-19T02:50:37.726Z,-4.60
2018-03-19T02:53:05.287Z,-4.60
2018-03-19T02:55:32.815Z,-4.50
2018-03-19T02:58:00.358Z,-4.50
2018-03-19T03:00:28.645Z,-4.60
2018-03-19T03:05:51.415Z,-4.60
2018-03-19T03:08:18.965Z,-4.60
2018-03-19T03:10:47.261Z,-4.60
2018-03-19T03:13:14.812Z,-4.60
2018-03-19T03:15:42.339Z,-4.70
2018-03-19T03:18:10.662Z,-4.70
2018-03-19T03:20:38.193Z,-4.70
2018-03-19T03:23:05.742Z,-4.70
2018-03-19T03:25:34.038Z,-4.80
2018-03-19T03:28:01.582Z,-4.80
2018-03-19T03:30:29.118Z,-4.80
2018-03-19T03:32:56.667Z,-4.80
2018-03-19T03:35:24.194Z,-4.80
2018-03-19T03:37:51.750Z,-4.80
2018-03-19T03:40:19.270Z,-4.90
2018-03-19T03:42:47.580Z,-4.80
2018-03-19T03:45:15.097Z,-4.80
2018-03-19T03:47:43.414Z,-4.90
2018-03-19T03:50:10.960Z,-4.90
2018-03-19T03:52:38.508Z,-4.80
2018-03-19T03:55:06.032Z,-4.80
2018-03-19T03:57:33.569Z,-4.80
2018-03-19T04:00:01.092Z,-4.80
2018-03-19T04:02:28.646Z,-4.80
2018-03-19T04:04:56.169Z,-4.80
2018-03-19T04:07:23.710Z,-4.80
2018-03-19T04:09:51.241Z,-4.80
2018-03-19T04:12:18.784Z,-4.90
2018-03-19T04:14:47.076Z,-4.80
2018-03-19T04:17:14.630Z,-4.90
2018-03-19T04:19:42.149Z,-4.90
2018-03-19T04:22:10.457Z,-4.90
2018-03-19T04:24:37.979Z,-4.90
2018-03-19T04:27:06.290Z,-4.90
2018-03-19T04:29:33.835Z,-4.90
2018-03-19T04:32:01.380Z,-4.90
2018-03-19T04:34:29.694Z,-4.90
2018-03-19T04:36:57.208Z,-4.90
2018-03-19T04:39:25.524Z,-5.00
2018-03-19T04:41:53.058Z,-5.00
2018-03-19T04:44:20.605Z,-5.00
2018-03-19T04:46:48.889Z,-5.00
2018-03-19T04:49:16.444Z,-5.00
2018-03-19T04:51:44.730Z,-5.00
2018-03-19T04:54:12.299Z,-5.00
2018-03-19T04:56:39.830Z,-5.00
2018-03-19T04:59:08.141Z,-5.00
2018-03-19T05:01:36.444Z,-5.10
2018-03-19T05:04:04.039Z,-5.10
2018-03-19T05:06:32.325Z,-5.10
2018-03-19T05:08:59.874Z,-5.10
2018-03-19T05:11:28.166Z,-5.20
2018-03-19T05:13:55.713Z,-5.20
2018-03-19T05:16:24.014Z,-5.10
2018-03-19T05:18:52.329Z,-5.10
2018-03-19T05:21:19.864Z,-5.10
2018-03-19T05:23:48.170Z,-5.10
2018-03-19T05:26:15.704Z,-5.10
2018-03-19T05:28:43.249Z,-5.00
2018-03-19T05:31:10.784Z,-5.00
2018-03-19T05:33:38.329Z,-5.00
2018-03-19T05:36:06.618Z,-5.10
2018-03-19T05:38:34.950Z,-5.00
2018-03-19T05:41:02.469Z,-5.10
2018-03-19T05:43:30.020Z,-5.00
2018-03-19T05:45:57.545Z,-5.00
2018-03-19T05:48:25.089Z,-5.00
2018-03-19T05:50:52.622Z,-5.00
2018-03-19T05:53:20.170Z,-4.90
2018-03-19T05:55:47.701Z,-4.80
2018-03-19T05:58:15.255Z,-4.90
2018-03-19T06:00:43.554Z,-4.80
2018-03-19T06:03:11.109Z,-4.80
2018-03-19T06:05:38.634Z,-4.80
2018-03-19T06:08:06.172Z,-4.80
2018-03-19T06:10:33.706Z,-4.70
2018-03-19T06:13:01.261Z,-4.60
2018-03-19T06:15:28.780Z,-4.60
2018-03-19T06:17:57.087Z,-4.60
2018-03-19T06:20:24.625Z,-4.60
2018-03-19T06:22:52.178Z,-4.50
2018-03-19T06:25:20.465Z,-4.40
2018-03-19T06:27:48.016Z,-4.40
2018-03-19T06:30:15.545Z,-4.30
2018-03-19T06:32:43.096Z,-4.30
2018-03-19T06:35:10.639Z,-4.30
2018-03-19T06:37:38.180Z,-4.30
2018-03-19T06:40:05.715Z,-4.30
2018-03-19T06:42:33.245Z,-4.30
2018-03-19T06:45:01.566Z,-4.30
2018-03-19T06:47:29.857Z,-4.30
2018-03-19T06:49:57.394Z,-4.30
2018-03-19T06:52:24.913Z,-4.10
2018-03-19T06:54:53.234Z,-4.00
2018-03-19T06:57:20.761Z,-4.00
2018-03-19T06:59:49.078Z,-3.70
2018-03-19T07:02:16.601Z,-3.80
2018-03-19T07:04:44.141Z,-3.60
2018-03-19T07:07:12.443Z,-3.60
2018-03-19T07:09:39.989Z,-3.60
2018-03-19T07:12:08.291Z,-3.60
2018-03-19T07:14:35.834Z,-3.60
2018-03-19T07:17:03.357Z,-3.60
2018-03-19T07:19:30.905Z,-3.50
2018-03-19T07:21:58.426Z,-3.50
2018-03-19T07:24:26.737Z,-3.60
2018-03-19T07:26:54.253Z,-3.60
2018-03-19T07:29:21.828Z,-3.50
2018-03-19T07:31:49.352Z,-3.40
2018-03-19T07:34:16.888Z,-3.40
2018-03-19T07:36:44.412Z,-3.30
2018-03-19T07:39:11.946Z,-3.20
2018-03-19T07:41:39.474Z,-3.20
2018-03-19T07:44:07.786Z,-2.90
2018-03-19T07:46:35.302Z,-2.90
2018-03-19T07:49:03.610Z,-3.00
2018-03-19T07:51:31.133Z,-3.00
2018-03-19T07:53:59.440Z,-3.30
2018-03-19T07:56:26.957Z,-3.30
2018-03-19T07:58:54.502Z,-3.30
2018-03-19T08:01:22.029Z,-3.20
2018-03-19T08:03:49.569Z,-3.20
2018-03-19T08:06:17.093Z,-3.40
2018-03-19T08:08:44.636Z,-3.50
2018-03-19T08:11:12.157Z,-3.50
2018-03-19T08:13:40.710Z,-3.50
2018-03-19T08:16:09.024Z,-3.50
2018-03-19T08:18:36.590Z,-3.40
2018-03-19T08:21:04.122Z,-3.50
2018-03-19T08:23:31.669Z,-3.60
2018-03-19T08:25:59.206Z,-3.60
2018-03-19T08:28:27.517Z,-3.40
2018-03-19T08:30:55.041Z,-3.40
2018-03-19T08:33:23.359Z,-3.50
2018-03-19T08:35:50.893Z,-3.50
2018-03-19T08:38:19.209Z,-3.00
2018-03-19T08:40:46.730Z,-3.00
2018-03-19T08:43:14.339Z,-2.90
2018-03-19T08:45:41.860Z,-2.70
2018-03-19T08:48:09.385Z,-2.60
2018-03-19T08:50:37.699Z,-2.60
2018-03-19T08:53:05.225Z,-2.60
2018-03-19T08:55:33.554Z,-2.40
2018-03-19T08:58:01.084Z,-2.40
2018-03-19T09:00:28.632Z,-2.40
2018-03-19T09:02:56.166Z,-2.40
2018-03-19T09:05:23.708Z,-2.50
2018-03-19T09:07:51.237Z,-2.40
2018-03-19T09:10:18.790Z,-2.20
2018-03-19T09:12:46.334Z,-2.20
2018-03-19T09:15:13.891Z,-2.20
2018-03-19T09:17:41.426Z,-2.20
2018-03-19T09:20:09.748Z,-2.00
2018-03-19T09:22:37.276Z,-2.00
2018-03-19T09:25:04.824Z,-2.10
2018-03-19T09:27:32.350Z,-2.00
2018-03-19T09:29:59.897Z,-1.80
2018-03-19T09:32:27.439Z,-1.60
2018-03-19T09:34:55.001Z,-1.40
2018-03-19T09:37:22.540Z,-1.40
2018-03-19T09:39:50.089Z,-1.50
2018-03-19T09:42:17.617Z,-1.40
2018-03-19T09:44:45.162Z,-1.60
2018-03-19T09:47:12.681Z,-1.30
2018-03-19T09:49:40.222Z,-1.40
2018-03-19T09:52:07.750Z,-1.10
2018-03-19T09:54:36.094Z,-1.00
2018-03-19T09:57:03.606Z,-1.00
2018-03-19T09:59:31.148Z,-0.90
2018-03-19T10:01:59.453Z,-1.00
2018-03-19T10:04:27.002Z,-1.00
2018-03-19T10:06:54.533Z,-0.70
2018-03-19T10:09:22.141Z,-0.80
2018-03-19T10:11:50.505Z,-0.60
2018-03-19T10:14:18.051Z,-0.40
2018-03-19T10:16:45.577Z,-0.20
2018-03-19T10:19:13.125Z,0.00
2018-03-19T10:21:40.669Z,0.10
2018-03-19T10:24:08.206Z,0.20
2018-03-19T10:26:36.501Z,0.20
2018-03-19T10:29:04.052Z,0.20
2018-03-19T10:31:31.577Z,0.00
2018-03-19T10:33:59.889Z,0.10
2018-03-19T10:36:27.418Z,0.10
2018-03-19T10:38:54.957Z,0.20
2018-03-19T10:41:23.244Z,0.30
2018-03-19T10:43:51.554Z,0.20
2018-03-19T10:46:19.811Z,0.10
2018-03-19T10:48:47.349Z,0.30
2018-03-19T10:51:15.683Z,0.40
2018-03-19T10:53:43.200Z,0.40
2018-03-19T10:56:10.741Z,0.60
2018-03-19T10:58:39.034Z,0.80
2018-03-19T11:01:12.152Z,0.70
2018-03-19T11:03:39.646Z,1.10
2018-03-19T11:06:12.778Z,0.80
2018-03-19T11:08:45.946Z,1.10
2018-03-19T11:11:13.500Z,1.00
2018-03-19T11:13:41.794Z,1.20
2018-03-19T11:16:09.381Z,1.20
2018-03-19T11:18:36.913Z,1.40
2018-03-19T11:21:04.457Z,1.50
2018-03-19T11:23:32.745Z,1.40
2018-03-19T11:26:00.327Z,1.40
2018-03-19T11:28:27.841Z,1.00
2018-03-19T11:30:56.143Z,1.20
2018-03-19T11:33:23.674Z,1.10
2018-03-19T11:35:51.997Z,1.00
2018-03-19T11:38:19.565Z,0.90
2018-03-19T11:40:47.106Z,1.30
2018-03-19T11:43:14.613Z,1.20
2018-03-19T11:45:42.930Z,1.00
2018-03-19T11:48:10.462Z,1.00
2018-03-19T11:50:38.765Z,1.50
2018-03-19T11:53:06.289Z,1.50
2018-03-19T11:55:34.595Z,2.20
2018-03-19T11:58:02.194Z,2.20
2018-03-19T12:00:29.715Z,2.30
2018-03-19T12:02:57.229Z,2.30
2018-03-19T12:05:24.773Z,2.50
2018-03-19T12:07:52.293Z,2.50
2018-03-19T12:10:20.594Z,2.40
2018-03-19T12:13:02.325Z,2.40
2018-03-19T12:15:30.625Z,2.70
2018-03-19T12:17:58.146Z,2.70
2018-03-19T12:20:25.686Z,2.90
2018-03-19T12:22:53.256Z,3.00
2018-03-19T12:25:20.797Z,3.40
2018-03-19T12:27:48.313Z,3.10
2018-03-19T12:30:15.860Z,2.90
2018-03-19T12:38:33.144Z,3.10
2018-03-19T12:41:01.123Z,3.10
2018-03-19T12:43:28.651Z,3.10
2018-03-19T12:45:56.196Z,3.10
2018-03-19T12:48:24.486Z,2.70
2018-03-19T12:50:52.070Z,2.70
2018-03-19T12:53:40.853Z,2.90
2018-03-19T12:56:08.421Z,2.90
2018-03-19T12:58:35.954Z,3.00
2018-03-19T13:01:03.510Z,2.90
2018-03-19T13:03:31.129Z,2.60
2018-03-19T13:05:59.447Z,2.90
2018-03-19T13:08:27.007Z,2.90
2018-03-19T13:10:54.566Z,2.80
2018-03-19T13:13:22.090Z,2.80
2018-03-19T13:15:49.646Z,2.30
2018-03-19T13:18:17.177Z,2.10
2018-03-19T13:20:44.731Z,1.80
2018-03-19T13:23:12.279Z,1.30
2018-03-19T13:25:39.837Z,1.30
2018-03-19T13:28:07.366Z,1.40
2018-03-19T13:30:34.917Z,1.30
2018-03-19T13:33:02.464Z,1.20
2018-03-19T13:35:30.026Z,1.50
2018-03-19T13:37:57.547Z,1.10
2018-03-19T13:40:25.871Z,1.30
2018-03-19T13:42:53.401Z,1.20
2018-03-19T13:45:20.955Z,0.90
2018-03-19T13:47:48.502Z,1.20
2018-03-19T13:50:16.829Z,1.40
2018-03-19T13:52:44.356Z,1.40
2018-03-19T13:55:11.900Z,1.70
2018-03-19T13:57:40.193Z,1.50
2018-03-19T14:00:07.751Z,1.50
2018-03-19T14:02:35.286Z,1.60
2018-03-19T14:05:03.866Z,1.40
2018-03-19T14:07:32.214Z,1.30
2018-03-19T14:09:59.769Z,1.30
2018-03-19T14:12:27.359Z,1.50
2018-03-19T14:14:55.699Z,1.70
2018-03-19T14:17:23.298Z,1.70
2018-03-19T14:19:50.874Z,1.60
2018-03-19T14:22:19.210Z,1.60
2018-03-19T14:24:46.758Z,1.60
2018-03-19T14:27:14.337Z,1.70
2018-03-19T14:29:41.871Z,1.70
2018-03-19T14:32:09.429Z,1.40
2018-03-19T14:34:36.954Z,1.40
2018-03-19T14:37:04.514Z,1.50
2018-03-19T14:39:32.089Z,1.40
2018-03-19T14:41:59.619Z,1.40
2018-03-19T14:44:27.163Z,1.50
2018-03-19T14:46:54.753Z,1.00
2018-03-19T14:49:22.281Z,0.10
2018-03-19T14:51:50.596Z,-0.90
2018-03-19T14:54:18.141Z,-1.00
2018-03-19T14:56:45.697Z,-1.50
2018-03-19T14:59:13.237Z,-1.30
2018-03-19T15:01:41.548Z,-0.90
2018-03-19T15:04:09.093Z,-1.00
2018-03-19T15:06:36.644Z,-1.60
2018-03-19T15:09:04.174Z,-1.50
2018-03-19T15:11:31.732Z,-1.40
2018-03-19T15:13:59.262Z,-1.40
2018-03-19T15:16:26.954Z,-1.40
2018-03-19T15:18:54.487Z,-1.30
2018-03-19T15:21:22.037Z,-1.30
2018-03-19T15:23:49.571Z,-1.20
2018-03-19T15:26:17.138Z,-1.10
2018-03-19T15:28:44.665Z,-1.50
2018-03-19T15:31:12.985Z,-1.30
2018-03-19T15:33:40.522Z,-1.30
2018-03-19T15:36:08.089Z,-1.50
2018-03-19T15:38:36.393Z,-1.60
2018-03-19T15:41:03.925Z,-1.60
2018-03-19T15:43:31.469Z,-1.50
2018-03-19T15:45:58.994Z,-1.40
2018-03-19T15:48:27.314Z,-1.30
2018-03-19T15:50:54.841Z,-1.30
2018-03-19T15:53:24.156Z,-1.80
2018-03-19T15:55:51.690Z,-1.80
2018-03-19T15:58:19.241Z,-2.00
2018-03-19T16:00:47.545Z,-1.40
2018-03-19T16:03:15.102Z,-1.50
2018-03-19T16:05:42.673Z,-1.30
2018-03-19T16:08:10.211Z,-1.20
2018-03-19T16:10:38.517Z,-1.10
2018-03-19T16:13:06.070Z,-1.10
2018-03-19T16:15:33.940Z,-1.10
2018-03-19T16:18:01.491Z,-1.10
2018-03-19T16:20:29.028Z,-1.30
2018-03-19T16:22:56.588Z,-1.60
2018-03-19T16:25:24.302Z,-1.70
2018-03-19T16:27:51.853Z,-1.80
2018-03-19T16:30:20.181Z,-1.70
2018-03-19T16:32:48.509Z,-1.50
2018-03-19T16:35:16.054Z,-1.40
2018-03-19T16:37:43.607Z,-1.50
2018-03-19T16:40:11.154Z,-1.50
2018-03-19T16:42:38.709Z,-1.60
2018-03-19T16:45:06.241Z,-1.90
2018-03-19T16:47:34.555Z,-2.20
2018-03-19T16:50:02.105Z,-2.20
2018-03-19T16:52:29.663Z,-2.10
2018-03-19T16:54:57.188Z,-2.30
2018-03-19T16:57:25.502Z,-2.40
2018-03-19T16:59:53.038Z,-2.40
2018-03-19T17:02:21.346Z,-2.40
2018-03-19T17:04:48.892Z,-2.50
2018-03-19T17:07:17.258Z,-2.50
2018-03-19T17:09:44.753Z,-2.50
2018-03-19T17:12:12.309Z,-2.50
2018-03-19T17:14:39.832Z,-2.60
2018-03-19T17:17:07.385Z,-2.60
2018-03-19T17:19:35.747Z,-2.70
2018-03-19T17:22:03.317Z,-2.70
2018-03-19T17:24:31.618Z,-2.90
2018-03-19T17:26:59.162Z,-2.90
2018-03-19T17:29:26.701Z,-2.90
2018-03-19T17:31:55.019Z,-3.00
2018-03-19T17:34:22.550Z,-3.00
2018-03-19T17:36:50.104Z,-3.00
2018-03-19T17:39:18.408Z,-3.00
2018-03-19T17:41:45.948Z,-3.10
2018-03-19T17:44:13.497Z,-3.10
2018-03-19T17:46:41.033Z,-3.10
2018-03-19T17:49:08.617Z,-3.10
2018-03-19T17:51:36.246Z,-3.10
2018-03-19T17:54:03.816Z,-3.10
2018-03-19T17:56:31.353Z,-3.20
2018-03-19T17:58:58.902Z,-3.20
2018-03-19T18:01:26.435Z,-3.20
2018-03-19T18:03:54.745Z,-3.30
2018-03-19T18:06:22.285Z,-3.30
2018-03-19T18:08:49.834Z,-3.30
2018-03-19T18:11:17.369Z,-3.30
2018-03-19T18:13:44.924Z,-3.30
2018-03-19T18:16:12.467Z,-3.30
2018-03-19T18:18:40.018Z,-3.40
2018-03-19T18:21:08.385Z,-3.40
2018-03-19T18:23:36.712Z,-3.40
2018-03-19T18:26:04.243Z,-3.40
2018-03-19T18:28:31.845Z,-3.40
2018-03-19T18:30:59.416Z,-3.40
2018-03-19T18:33:27.018Z,-3.40
2018-03-19T18:35:56.167Z,-3.50
2018-03-19T18:38:23.792Z,-3.50
2018-03-19T18:40:51.386Z,-3.50
2018-03-19T18:43:19.065Z,-3.50
2018-03-19T18:45:50.018Z,-3.50
2018-03-19T18:48:18.378Z,-3.60
2018-03-19T18:50:45.958Z,-3.60
2018-03-19T18:53:14.298Z,-3.70
2018-03-19T18:55:41.870Z,-3.70
2018-03-19T18:58:09.558Z,-3.70
2018-03-19T19:00:37.222Z,-3.60
2018-03-19T19:03:05.556Z,-3.70
2018-03-19T19:05:33.201Z,-3.70
2018-03-19T19:08:00.939Z,-3.70
2018-03-19T19:10:29.238Z,-3.70
2018-03-19T19:12:56.966Z,-3.70
2018-03-19T19:15:24.659Z,-3.70
2018-03-19T19:17:53.095Z,-3.70
2018-03-19T19:20:21.446Z,-3.70
2018-03-19T19:22:49.149Z,-3.80
2018-03-19T19:25:17.477Z,-3.80
2018-03-19T19:27:45.061Z,-3.80
2018-03-19T19:30:13.394Z,-3.90
2018-03-19T19:32:40.958Z,-3.90
2018-03-19T19:35:08.495Z,-3.90
2018-03-19T19:37:36.072Z,-3.90
2018-03-19T19:40:03.665Z,-4.00
2018-03-19T19:42:31.226Z,-4.00
2018-03-19T19:44:58.767Z,-4.00
2018-03-19T19:47:26.330Z,-3.90
2018-03-19T19:49:53.890Z,-3.90
2018-03-19T19:52:21.447Z,-4.00
2018-03-19T19:54:49.024Z,-3.90
2018-03-19T19:57:16.587Z,-4.00
2018-03-19T19:59:44.815Z,-4.00
2018-03-19T20:02:12.364Z,-4.00
2018-03-19T20:04:39.932Z,-4.00
2018-03-19T20:07:07.490Z,-4.00
2018-03-19T20:09:35.043Z,-4.00
2018-03-19T20:12:02.642Z,-4.00
2018-03-19T20:14:30.190Z,-4.00
2018-03-19T20:16:57.723Z,-4.00
2018-03-19T20:19:25.319Z,-4.10
2018-03-19T20:21:52.828Z,-4.10
2018-03-19T20:24:20.378Z,-4.10
2018-03-19T20:26:47.922Z,-4.10
2018-03-19T20:29:16.239Z,-4.20
2018-03-19T20:31:43.775Z,-4.20
2018-03-19T20:34:11.329Z,-4.20
2018-03-19T20:36:38.861Z,-4.20
2018-03-19T20:39:06.423Z,-4.20
2018-03-19T20:41:34.734Z,-4.20
2018-03-19T20:44:02.288Z,-4.20
2018-03-19T20:46:29.823Z,-4.20
2018-03-19T20:48:58.141Z,-4.20
2018-03-19T20:51:25.681Z,-4.20
2018-03-19T20:53:54.088Z,-4.20
2018-03-19T20:56:21.630Z,-4.20
2018-03-19T20:58:49.190Z,-4.20
2018-03-19T21:01:16.741Z,-4.30
2018-03-19T21:03:44.299Z,-4.30
2018-03-19T21:06:11.837Z,-4.30
2018-03-19T21:08:40.159Z,-4.30
2018-03-19T21:11:08.449Z,-4.30
2018-03-19T21:13:36.006Z,-4.30
2018-03-19T21:16:03.565Z,-4.30
2018-03-19T21:18:31.123Z,-4.30
2018-03-19T21:20:58.658Z,-4.30
2018-03-19T21:23:26.217Z,-4.40
2018-03-19T21:25:53.792Z,-4.40
2018-03-19T21:28:21.578Z,-4.40
2018-03-19T21:30:49.954Z,-4.40
2018-03-19T21:33:17.578Z,-4.40
2018-03-19T21:35:45.154Z,-4.40
2018-03-19T21:38:12.759Z,-4.40
2018-03-19T21:40:41.172Z,-4.40
2018-03-19T21:43:08.795Z,-4.50
2018-03-19T21:45:36.388Z,-4.40
2018-03-19T21:48:03.927Z,-4.40
2018-03-19T21:50:31.557Z,-4.40
2018-03-19T21:52:59.098Z,-4.40
2018-03-19T21:55:26.703Z,-4.40
2018-03-19T21:57:54.290Z,-4.40
2018-03-19T22:00:21.915Z,-4.40
2018-03-19T22:02:49.584Z,-4.40
2018-03-19T22:05:17.150Z,-4.40
2018-03-19T22:07:44.715Z,-4.40
2018-03-19T22:10:12.318Z,-4.40
2018-03-19T22:12:39.878Z,-4.40
2018-03-19T22:15:07.494Z,-4.50
2018-03-19T22:17:35.114Z,-4.50
2018-03-19T22:20:02.714Z,-4.50
2018-03-19T22:22:30.295Z,-4.50
2018-03-19T22:24:57.893Z,-4.50
2018-03-19T22:27:25.527Z,-4.50
2018-03-19T22:29:53.106Z,-4.50
2018-03-19T22:32:20.685Z,-4.50
2018-03-19T22:34:49.037Z,-4.50
2018-03-19T22:37:16.633Z,-4.50
2018-03-19T22:39:44.228Z,-4.50
2018-03-19T22:42:11.795Z,-4.50
2018-03-19T22:44:39.618Z,-4.50
2018-03-19T22:47:07.957Z,-4.50
2018-03-19T22:49:35.583Z,-4.60
2018-03-19T22:52:03.146Z,-4.50
2018-03-19T22:54:30.769Z,-4.50
2018-03-19T22:56:58.325Z,-4.50
2018-03-19T22:59:26.010Z,-4.60
2018-03-19T23:01:53.634Z,-4.60
2018-03-19T23:04:32.998Z,-4.60
2018-03-19T23:07:00.572Z,-4.60
2018-03-19T23:09:28.183Z,-4.60
2018-03-19T23:11:56.546Z,-4.60
2018-03-19T23:14:24.223Z,-4.60
2018-03-19T23:16:51.795Z,-4.60
2018-03-19T23:19:20.262Z,-4.60
2018-03-19T23:21:48.611Z,-4.60
2018-03-19T23:24:16.288Z,-4.60
2018-03-19T23:26:43.893Z,-4.60
2018-03-19T23:29:11.511Z,-4.60
2018-03-19T23:31:39.107Z,-4.60
2018-03-19T23:34:06.703Z,-4.60
2018-03-19T23:36:34.261Z,-4.60
2018-03-19T23:39:01.858Z,-4.60
2018-03-19T23:41:30.215Z,-4.60
2018-03-19T23:43:57.809Z,-4.60
2018-03-19T23:46:25.394Z,-4.60
2018-03-19T23:48:52.994Z,-4.60
2018-03-19T23:51:20.796Z,-4.60
2018-03-19T23:53:48.399Z,-4.60
2018-03-19T23:56:15.952Z,-4.60
2018-03-19T23:58:43.519Z,-4.60
